sensor_id;sensor_type;location;lat;lon;timestamp;pressure;altitude;pressure_sealevel;temperature;humidity
28167;BME280;15455;53.376;-6.262;2024-01-15T00:01:54;101390.75;;;-1.02;100.00
28167;BME280;15455;53.376;-6.262;2024-01-15T00:04:40;101387.28;;;-1.03;100.00
28167;BME280;15455;53.376;-6.262;2024-01-15T00:07:26;101390.63;;;-1.04;100.00
28167;BME280;15455;53.376;-6.262;2024-01-15T00:10:12;101382.22;;;-1.01;100.00
28167;BME280;15455;53.376;-6.262;2024-01-15T00:12:57;101385.84;;;-0.98;100.00
28167;BME280;15455;53.376;-6.262;2024-01-15T00:15:43;101384.97;;;-0.98;100.00
28167;BME280;15455;53.376;-6.262;2024-01-15T00:18:29;101384.88;;;-1.00;100.00
28167;BME280;15455;53.376;-6.262;2024-01-15T00:21:15;101379.66;;;-1.01;100.00
28167;BME280;15455;53.376;-6.262;2024-01-15T00:24:01;101387.78;;;-0.94;100.00
28167;BME280;15455;53.376;-6.262;2024-01-15T00:26:47;101378.56;;;-0.90;100.00
28167;BME280;15455;53.376;-6.262;2024-01-15T00:29:33;101377.72;;;-0.91;100.00
28167;BME280;15455;53.376;-6.262;2024-01-15T00:32:18;101381.13;;;-0.90;100.00
28167;BME280;15455;53.376;-6.262;2024-01-15T00:35:05;101384.56;;;-0.90;100.00
28167;BME280;15455;53.376;-6.262;2024-01-15T00:37:51;101381.94;;;-0.91;100.00
28167;BME280;15455;53.376;-6.262;2024-01-15T00:40:36;101377.63;;;-0.92;100.00
28167;BME280;15455;53.376;-6.262;2024-01-15T00:43:22;101370.72;;;-0.93;100.00
28167;BME280;15455;53.376;-6.262;2024-01-15T00:46:08;101369.66;;;-0.97;100.00
28167;BME280;15455;53.376;-6.262;2024-01-15T00:48:54;101364.28;;;-1.01;100.00
28167;BME280;15455;53.376;-6.262;2024-01-15T00:51:40;101365.13;;;-1.02;100.00
28167;BME280;15455;53.376;-6.262;2024-01-15T00:54:26;101369.41;;;-1.01;100.00
28167;BME280;15455;53.376;-6.262;2024-01-15T00:57:12;101370.31;;;-1.01;100.00
28167;BME280;15455;53.376;-6.262;2024-01-15T00:59:58;101364.91;;;-1.06;100.00
28167;BME280;15455;53.376;-6.262;2024-01-15T01:02:47;101350.28;;;-1.08;100.00
28167;BME280;15455;53.376;-6.262;2024-01-15T01:05:36;101352.41;;;-1.01;100.00
28167;BME280;15455;53.376;-6.262;2024-01-15T01:08:21;101351.94;;;-0.94;100.00
28167;BME280;15455;53.376;-6.262;2024-01-15T01:11:07;101355.34;;;-0.93;100.00
28167;BME280;15455;53.376;-6.262;2024-01-15T01:13:53;101346.59;;;-0.97;100.00
28167;BME280;15455;53.376;-6.262;2024-01-15T01:16:39;101344.41;;;-0.91;100.00
28167;BME280;15455;53.376;-6.262;2024-01-15T01:19:25;101339.91;;;-0.95;100.00
28167;BME280;15455;53.376;-6.262;2024-01-15T01:22:10;101341.88;;;-1.06;100.00
28167;BME280;15455;53.376;-6.262;2024-01-15T01:24:56;101347.91;;;-1.05;100.00
28167;BME280;15455;53.376;-6.262;2024-01-15T01:27:42;101347.19;;;-1.02;100.00
28167;BME280;15455;53.376;-6.262;2024-01-15T01:30:28;101332.84;;;-0.99;100.00
28167;BME280;15455;53.376;-6.262;2024-01-15T01:33:14;101331.50;;;-0.92;100.00
28167;BME280;15455;53.376;-6.262;2024-01-15T01:36:00;101331.91;;;-0.84;100.00
28167;BME280;15455;53.376;-6.262;2024-01-15T01:38:46;101327.84;;;-0.81;100.00
28167;BME280;15455;53.376;-6.262;2024-01-15T01:41:32;101326.63;;;-0.71;100.00
28167;BME280;15455;53.376;-6.262;2024-01-15T01:44:18;101328.00;;;-0.78;100.00
28167;BME280;15455;53.376;-6.262;2024-01-15T01:47:04;101321.25;;;-0.76;100.00
28167;BME280;15455;53.376;-6.262;2024-01-15T01:49:50;101329.03;;;-0.74;100.00
28167;BME280;15455;53.376;-6.262;2024-01-15T01:52:36;101323.75;;;-0.77;100.00
28167;BME280;15455;53.376;-6.262;2024-01-15T01:55:24;101327.38;;;-0.74;100.00
28167;BME280;15455;53.376;-6.262;2024-01-15T01:58:11;101325.13;;;-0.67;100.00
28167;BME280;15455;53.376;-6.262;2024-01-15T02:00:57;101310.69;;;-0.65;100.00
28167;BME280;15455;53.376;-6.262;2024-01-15T02:03:44;101315.19;;;-0.61;100.00
28167;BME280;15455;53.376;-6.262;2024-01-15T02:06:30;101314.22;;;-0.63;100.00
28167;BME280;15455;53.376;-6.262;2024-01-15T02:09:17;101322.63;;;-0.66;100.00
28167;BME280;15455;53.376;-6.262;2024-01-15T02:12:03;101308.75;;;-0.70;100.00
28167;BME280;15455;53.376;-6.262;2024-01-15T02:14:49;101309.22;;;-0.77;100.00
28167;BME280;15455;53.376;-6.262;2024-01-15T02:17:34;101307.34;;;-0.81;100.00
28167;BME280;15455;53.376;-6.262;2024-01-15T02:20:20;101304.59;;;-0.84;100.00
28167;BME280;15455;53.376;-6.262;2024-01-15T02:23:10;101308.91;;;-0.83;100.00
28167;BME280;15455;53.376;-6.262;2024-01-15T02:25:56;101302.78;;;-0.86;100.00
28167;BME280;15455;53.376;-6.262;2024-01-15T02:28:42;101305.81;;;-0.94;100.00
28167;BME280;15455;53.376;-6.262;2024-01-15T02:31:29;101308.09;;;-0.98;100.00
28167;BME280;15455;53.376;-6.262;2024-01-15T02:34:15;101311.56;;;-0.98;100.00
28167;BME280;15455;53.376;-6.262;2024-01-15T02:37:01;101306.28;;;-1.01;100.00
28167;BME280;15455;53.376;-6.262;2024-01-15T02:39:47;101307.00;;;-1.03;100.00
28167;BME280;15455;53.376;-6.262;2024-01-15T02:42:33;101307.78;;;-1.05;100.00
28167;BME280;15455;53.376;-6.262;2024-01-15T02:45:20;101295.59;;;-1.09;100.00
28167;BME280;15455;53.376;-6.262;2024-01-15T02:48:06;101303.44;;;-1.06;100.00
28167;BME280;15455;53.376;-6.262;2024-01-15T02:50:51;101312.50;;;-0.96;100.00
28167;BME280;15455;53.376;-6.262;2024-01-15T02:53:37;101303.88;;;-0.98;100.00
28167;BME280;15455;53.376;-6.262;2024-01-15T02:56:23;101312.34;;;-0.99;100.00
28167;BME280;15455;53.376;-6.262;2024-01-15T02:59:08;101306.34;;;-0.99;100.00
28167;BME280;15455;53.376;-6.262;2024-01-15T03:01:53;101303.06;;;-0.97;100.00
28167;BME280;15455;53.376;-6.262;2024-01-15T03:04:43;101314.13;;;-0.98;100.00
28167;BME280;15455;53.376;-6.262;2024-01-15T03:07:30;101315.88;;;-0.97;100.00
28167;BME280;15455;53.376;-6.262;2024-01-15T03:10:15;101313.50;;;-0.94;100.00
28167;BME280;15455;53.376;-6.262;2024-01-15T03:13:01;101315.97;;;-0.95;100.00
28167;BME280;15455;53.376;-6.262;2024-01-15T03:15:47;101314.91;;;-0.99;100.00
28167;BME280;15455;53.376;-6.262;2024-01-15T03:18:32;101308.03;;;-1.00;100.00
28167;BME280;15455;53.376;-6.262;2024-01-15T03:21:18;101309.72;;;-1.00;100.00
28167;BME280;15455;53.376;-6.262;2024-01-15T03:24:04;101311.31;;;-1.02;100.00
28167;BME280;15455;53.376;-6.262;2024-01-15T03:26:50;101308.03;;;-1.00;100.00
28167;BME280;15455;53.376;-6.262;2024-01-15T03:29:35;101309.56;;;-1.03;100.00
28167;BME280;15455;53.376;-6.262;2024-01-15T03:32:21;101305.38;;;-1.01;100.00
28167;BME280;15455;53.376;-6.262;2024-01-15T03:35:07;101309.72;;;-1.00;100.00
28167;BME280;15455;53.376;-6.262;2024-01-15T03:37:52;101313.06;;;-1.01;100.00
28167;BME280;15455;53.376;-6.262;2024-01-15T03:40:38;101306.00;;;-1.06;100.00
28167;BME280;15455;53.376;-6.262;2024-01-15T03:43:24;101309.31;;;-1.08;100.00
28167;BME280;15455;53.376;-6.262;2024-01-15T03:46:09;101307.31;;;-1.14;100.00
28167;BME280;15455;53.376;-6.262;2024-01-15T03:48:54;101305.59;;;-1.13;100.00
28167;BME280;15455;53.376;-6.262;2024-01-15T03:51:40;101298.00;;;-1.12;100.00
28167;BME280;15455;53.376;-6.262;2024-01-15T03:54:26;101305.44;;;-1.16;100.00
28167;BME280;15455;53.376;-6.262;2024-01-15T03:57:12;101288.94;;;-1.22;100.00
28167;BME280;15455;53.376;-6.262;2024-01-15T03:59:57;101297.44;;;-1.23;100.00
28167;BME280;15455;53.376;-6.262;2024-01-15T04:02:43;101282.31;;;-1.18;100.00
28167;BME280;15455;53.376;-6.262;2024-01-15T04:05:29;101282.63;;;-1.12;100.00
28167;BME280;15455;53.376;-6.262;2024-01-15T04:08:15;101277.50;;;-1.12;100.00
28167;BME280;15455;53.376;-6.262;2024-01-15T04:11:00;101286.34;;;-1.07;100.00
28167;BME280;15455;53.376;-6.262;2024-01-15T04:13:47;101280.97;;;-1.11;100.00
28167;BME280;15455;53.376;-6.262;2024-01-15T04:16:32;101279.75;;;-1.18;100.00
28167;BME280;15455;53.376;-6.262;2024-01-15T04:19:18;101285.44;;;-1.24;100.00
28167;BME280;15455;53.376;-6.262;2024-01-15T04:22:03;101291.50;;;-1.22;100.00
28167;BME280;15455;53.376;-6.262;2024-01-15T04:24:49;101292.88;;;-1.28;100.00
28167;BME280;15455;53.376;-6.262;2024-01-15T04:27:34;101291.81;;;-1.32;100.00
28167;BME280;15455;53.376;-6.262;2024-01-15T04:30:20;101287.16;;;-1.39;100.00
28167;BME280;15455;53.376;-6.262;2024-01-15T04:33:06;101293.88;;;-1.41;100.00
28167;BME280;15455;53.376;-6.262;2024-01-15T04:35:52;101304.66;;;-1.47;100.00
28167;BME280;15455;53.376;-6.262;2024-01-15T04:38:37;101311.34;;;-1.49;100.00
28167;BME280;15455;53.376;-6.262;2024-01-15T04:41:23;101301.84;;;-1.51;100.00
28167;BME280;15455;53.376;-6.262;2024-01-15T04:44:08;101287.44;;;-1.49;100.00
28167;BME280;15455;53.376;-6.262;2024-01-15T04:46:54;101262.47;;;-1.53;100.00
28167;BME280;15455;53.376;-6.262;2024-01-15T04:49:39;101271.91;;;-1.52;100.00
28167;BME280;15455;53.376;-6.262;2024-01-15T04:52:25;101286.66;;;-1.48;100.00
28167;BME280;15455;53.376;-6.262;2024-01-15T04:55:10;101296.44;;;-1.41;100.00
28167;BME280;15455;53.376;-6.262;2024-01-15T04:57:56;101310.19;;;-1.39;100.00
28167;BME280;15455;53.376;-6.262;2024-01-15T05:00:42;101305.88;;;-1.40;100.00
28167;BME280;15455;53.376;-6.262;2024-01-15T05:03:28;101306.50;;;-1.44;100.00
28167;BME280;15455;53.376;-6.262;2024-01-15T05:06:13;101290.53;;;-1.55;100.00
28167;BME280;15455;53.376;-6.262;2024-01-15T05:08:59;101299.66;;;-1.60;100.00
28167;BME280;15455;53.376;-6.262;2024-01-15T05:11:45;101306.88;;;-1.68;100.00
28167;BME280;15455;53.376;-6.262;2024-01-15T05:14:30;101313.53;;;-1.71;100.00
28167;BME280;15455;53.376;-6.262;2024-01-15T05:17:15;101319.25;;;-1.76;100.00
28167;BME280;15455;53.376;-6.262;2024-01-15T05:20:01;101325.34;;;-1.73;100.00
28167;BME280;15455;53.376;-6.262;2024-01-15T05:22:47;101329.56;;;-1.74;100.00
28167;BME280;15455;53.376;-6.262;2024-01-15T05:25:33;101330.44;;;-1.73;100.00
28167;BME280;15455;53.376;-6.262;2024-01-15T05:28:18;101325.97;;;-1.78;100.00
28167;BME280;15455;53.376;-6.262;2024-01-15T05:31:04;101315.84;;;-1.76;100.00
28167;BME280;15455;53.376;-6.262;2024-01-15T05:33:50;101316.69;;;-1.76;100.00
28167;BME280;15455;53.376;-6.262;2024-01-15T05:36:36;101306.38;;;-1.77;100.00
28167;BME280;15455;53.376;-6.262;2024-01-15T05:39:22;101307.69;;;-1.84;100.00
28167;BME280;15455;53.376;-6.262;2024-01-15T05:42:08;101324.81;;;-1.83;100.00
28167;BME280;15455;53.376;-6.262;2024-01-15T05:44:54;101323.88;;;-1.85;100.00
28167;BME280;15455;53.376;-6.262;2024-01-15T05:47:40;101337.53;;;-1.84;100.00
28167;BME280;15455;53.376;-6.262;2024-01-15T05:50:26;101346.91;;;-1.85;100.00
28167;BME280;15455;53.376;-6.262;2024-01-15T05:53:11;101343.53;;;-1.84;100.00
28167;BME280;15455;53.376;-6.262;2024-01-15T05:55:57;101335.66;;;-1.87;100.00
28167;BME280;15455;53.376;-6.262;2024-01-15T05:58:42;101332.78;;;-1.93;100.00
28167;BME280;15455;53.376;-6.262;2024-01-15T06:01:27;101318.13;;;-1.96;100.00
28167;BME280;15455;53.376;-6.262;2024-01-15T06:04:13;101317.94;;;-1.99;100.00
28167;BME280;15455;53.376;-6.262;2024-01-15T06:06:59;101314.53;;;-1.99;100.00
28167;BME280;15455;53.376;-6.262;2024-01-15T06:09:45;101319.63;;;-1.99;100.00
28167;BME280;15455;53.376;-6.262;2024-01-15T06:12:31;101322.63;;;-2.06;100.00
28167;BME280;15455;53.376;-6.262;2024-01-15T06:15:18;101331.63;;;-2.13;100.00
28167;BME280;15455;53.376;-6.262;2024-01-15T06:18:03;101339.81;;;-2.19;100.00
28167;BME280;15455;53.376;-6.262;2024-01-15T06:20:49;101339.63;;;-2.22;100.00
28167;BME280;15455;53.376;-6.262;2024-01-15T06:23:36;101339.28;;;-2.28;100.00
28167;BME280;15455;53.376;-6.262;2024-01-15T06:26:22;101337.41;;;-2.31;100.00
28167;BME280;15455;53.376;-6.262;2024-01-15T06:29:08;101335.47;;;-2.35;100.00
28167;BME280;15455;53.376;-6.262;2024-01-15T06:31:53;101333.59;;;-2.37;100.00
28167;BME280;15455;53.376;-6.262;2024-01-15T06:34:39;101327.63;;;-2.38;100.00
28167;BME280;15455;53.376;-6.262;2024-01-15T06:37:25;101316.19;;;-2.30;100.00
28167;BME280;15455;53.376;-6.262;2024-01-15T06:40:11;101322.84;;;-2.32;100.00
28167;BME280;15455;53.376;-6.262;2024-01-15T06:42:56;101323.03;;;-2.29;100.00
28167;BME280;15455;53.376;-6.262;2024-01-15T06:45:42;101326.59;;;-2.27;100.00
28167;BME280;15455;53.376;-6.262;2024-01-15T06:48:28;101334.94;;;-2.29;100.00
28167;BME280;15455;53.376;-6.262;2024-01-15T06:51:14;101343.91;;;-2.36;100.00
28167;BME280;15455;53.376;-6.262;2024-01-15T06:53:59;101346.28;;;-2.39;100.00
28167;BME280;15455;53.376;-6.262;2024-01-15T06:56:45;101348.41;;;-2.47;100.00
28167;BME280;15455;53.376;-6.262;2024-01-15T06:59:30;101344.66;;;-2.52;100.00
28167;BME280;15455;53.376;-6.262;2024-01-15T07:02:16;101337.78;;;-2.53;100.00
28167;BME280;15455;53.376;-6.262;2024-01-15T07:05:01;101341.94;;;-2.55;100.00
28167;BME280;15455;53.376;-6.262;2024-01-15T07:07:47;101342.81;;;-2.54;100.00
28167;BME280;15455;53.376;-6.262;2024-01-15T07:10:32;101346.19;;;-2.55;100.00
28167;BME280;15455;53.376;-6.262;2024-01-15T07:13:21;101351.09;;;-2.58;100.00
28167;BME280;15455;53.376;-6.262;2024-01-15T07:16:07;101345.69;;;-2.63;100.00
28167;BME280;15455;53.376;-6.262;2024-01-15T07:18:52;101348.06;;;-2.66;100.00
28167;BME280;15455;53.376;-6.262;2024-01-15T07:21:38;101347.19;;;-2.67;100.00
28167;BME280;15455;53.376;-6.262;2024-01-15T07:24:25;101344.19;;;-2.74;100.00
28167;BME280;15455;53.376;-6.262;2024-01-15T07:27:10;101359.13;;;-2.81;100.00
28167;BME280;15455;53.376;-6.262;2024-01-15T07:29:56;101371.03;;;-2.81;100.00
28167;BME280;15455;53.376;-6.262;2024-01-15T07:32:46;101367.69;;;-2.80;100.00
28167;BME280;15455;53.376;-6.262;2024-01-15T07:35:32;101373.66;;;-2.80;100.00
28167;BME280;15455;53.376;-6.262;2024-01-15T07:38:17;101376.31;;;-2.78;100.00
28167;BME280;15455;53.376;-6.262;2024-01-15T07:41:03;101375.81;;;-2.72;100.00
28167;BME280;15455;53.376;-6.262;2024-01-15T07:43:49;101380.78;;;-2.60;100.00
28167;BME280;15455;53.376;-6.262;2024-01-15T07:46:34;101379.06;;;-2.47;100.00
28167;BME280;15455;53.376;-6.262;2024-01-15T07:49:20;101379.97;;;-2.31;100.00
28167;BME280;15455;53.376;-6.262;2024-01-15T07:52:06;101383.69;;;-2.26;100.00
28167;BME280;15455;53.376;-6.262;2024-01-15T07:54:52;101387.44;;;-2.21;100.00
28167;BME280;15455;53.376;-6.262;2024-01-15T07:57:37;101387.34;;;-2.22;100.00
28167;BME280;15455;53.376;-6.262;2024-01-15T08:00:23;101387.69;;;-2.16;100.00
28167;BME280;15455;53.376;-6.262;2024-01-15T08:03:09;101383.72;;;-2.11;100.00
28167;BME280;15455;53.376;-6.262;2024-01-15T08:05:55;101386.91;;;-2.15;100.00
28167;BME280;15455;53.376;-6.262;2024-01-15T08:08:42;101384.78;;;-2.22;100.00
28167;BME280;15455;53.376;-6.262;2024-01-15T08:11:28;101387.69;;;-2.16;100.00
28167;BME280;15455;53.376;-6.262;2024-01-15T08:14:13;101383.28;;;-2.19;100.00
28167;BME280;15455;53.376;-6.262;2024-01-15T08:17:00;101386.63;;;-2.20;100.00
28167;BME280;15455;53.376;-6.262;2024-01-15T08:19:46;101379.53;;;-2.24;100.00
28167;BME280;15455;53.376;-6.262;2024-01-15T08:22:32;101384.47;;;-2.27;100.00
28167;BME280;15455;53.376;-6.262;2024-01-15T08:25:17;101377.63;;;-2.28;100.00
28167;BME280;15455;53.376;-6.262;2024-01-15T08:28:03;101381.22;;;-2.24;100.00
28167;BME280;15455;53.376;-6.262;2024-01-15T08:30:49;101394.88;;;-2.24;100.00
28167;BME280;15455;53.376;-6.262;2024-01-15T08:33:35;101404.06;;;-2.28;100.00
28167;BME280;15455;53.376;-6.262;2024-01-15T08:36:21;101404.56;;;-2.33;100.00
28167;BME280;15455;53.376;-6.262;2024-01-15T08:39:07;101399.88;;;-2.40;100.00
28167;BME280;15455;53.376;-6.262;2024-01-15T08:41:54;101401.75;;;-2.38;100.00
28167;BME280;15455;53.376;-6.262;2024-01-15T08:44:40;101394.94;;;-2.37;100.00
28167;BME280;15455;53.376;-6.262;2024-01-15T08:47:28;101396.47;;;-2.26;100.00
28167;BME280;15455;53.376;-6.262;2024-01-15T08:50:14;101395.69;;;-2.25;100.00
28167;BME280;15455;53.376;-6.262;2024-01-15T08:53:00;101400.63;;;-2.28;100.00
28167;BME280;15455;53.376;-6.262;2024-01-15T08:55:46;101398.34;;;-2.23;100.00
28167;BME280;15455;53.376;-6.262;2024-01-15T08:58:32;101403.53;;;-2.22;100.00
28167;BME280;15455;53.376;-6.262;2024-01-15T09:01:17;101409.72;;;-2.18;100.00
28167;BME280;15455;53.376;-6.262;2024-01-15T09:04:04;101410.09;;;-2.12;100.00
28167;BME280;15455;53.376;-6.262;2024-01-15T09:06:50;101411.94;;;-2.10;100.00
28167;BME280;15455;53.376;-6.262;2024-01-15T09:09:35;101411.25;;;-2.07;100.00
28167;BME280;15455;53.376;-6.262;2024-01-15T09:12:21;101412.16;;;-2.06;100.00
28167;BME280;15455;53.376;-6.262;2024-01-15T09:15:07;101423.50;;;-2.01;100.00
28167;BME280;15455;53.376;-6.262;2024-01-15T09:17:54;101410.03;;;-1.99;100.00
28167;BME280;15455;53.376;-6.262;2024-01-15T09:20:39;101414.63;;;-1.93;100.00
28167;BME280;15455;53.376;-6.262;2024-01-15T09:23:25;101419.13;;;-1.89;100.00
28167;BME280;15455;53.376;-6.262;2024-01-15T09:26:13;101416.06;;;-1.83;100.00
28167;BME280;15455;53.376;-6.262;2024-01-15T09:28:59;101420.44;;;-1.81;100.00
28167;BME280;15455;53.376;-6.262;2024-01-15T09:31:45;101424.00;;;-1.79;100.00
28167;BME280;15455;53.376;-6.262;2024-01-15T09:34:31;101434.31;;;-1.77;100.00
28167;BME280;15455;53.376;-6.262;2024-01-15T09:37:16;101441.28;;;-1.75;100.00
28167;BME280;15455;53.376;-6.262;2024-01-15T09:40:23;101441.66;;;-1.68;100.00
28167;BME280;15455;53.376;-6.262;2024-01-15T09:43:09;101442.69;;;-1.65;100.00
28167;BME280;15455;53.376;-6.262;2024-01-15T09:45:55;101433.63;;;-1.60;100.00
28167;BME280;15455;53.376;-6.262;2024-01-15T09:48:42;101433.09;;;-1.54;100.00
28167;BME280;15455;53.376;-6.262;2024-01-15T09:51:31;101435.22;;;-1.47;100.00
28167;BME280;15455;53.376;-6.262;2024-01-15T09:54:17;101431.59;;;-1.35;100.00
28167;BME280;15455;53.376;-6.262;2024-01-15T09:57:04;101428.41;;;-1.31;100.00
28167;BME280;15455;53.376;-6.262;2024-01-15T09:59:51;101432.78;;;-1.29;100.00
28167;BME280;15455;53.376;-6.262;2024-01-15T10:02:37;101442.16;;;-1.29;100.00
28167;BME280;15455;53.376;-6.262;2024-01-15T10:05:23;101441.63;;;-1.24;100.00
28167;BME280;15455;53.376;-6.262;2024-01-15T10:08:09;101448.72;;;-1.19;100.00
28167;BME280;15455;53.376;-6.262;2024-01-15T10:10:56;101443.03;;;-1.14;100.00
28167;BME280;15455;53.376;-6.262;2024-01-15T10:13:43;101448.50;;;-1.08;100.00
28167;BME280;15455;53.376;-6.262;2024-01-15T10:16:31;101441.84;;;-1.04;100.00
28167;BME280;15455;53.376;-6.262;2024-01-15T10:19:17;101440.44;;;-0.99;100.00
28167;BME280;15455;53.376;-6.262;2024-01-15T10:22:03;101436.28;;;-0.97;100.00
28167;BME280;15455;53.376;-6.262;2024-01-15T10:24:49;101435.41;;;-0.97;100.00
28167;BME280;15455;53.376;-6.262;2024-01-15T10:27:35;101428.50;;;-0.98;100.00
28167;BME280;15455;53.376;-6.262;2024-01-15T10:30:20;101431.06;;;-0.98;100.00
28167;BME280;15455;53.376;-6.262;2024-01-15T10:33:06;101437.88;;;-0.99;100.00
28167;BME280;15455;53.376;-6.262;2024-01-15T10:35:57;101443.97;;;-0.97;100.00
28167;BME280;15455;53.376;-6.262;2024-01-15T10:38:44;101439.81;;;-0.95;100.00
28167;BME280;15455;53.376;-6.262;2024-01-15T10:41:29;101443.44;;;-0.91;100.00
28167;BME280;15455;53.376;-6.262;2024-01-15T10:44:15;101443.88;;;-0.83;100.00
28167;BME280;15455;53.376;-6.262;2024-01-15T10:47:01;101447.47;;;-0.80;100.00
28167;BME280;15455;53.376;-6.262;2024-01-15T10:49:46;101449.47;;;-0.74;100.00
28167;BME280;15455;53.376;-6.262;2024-01-15T10:52:35;101455.91;;;-0.66;100.00
28167;BME280;15455;53.376;-6.262;2024-01-15T10:55:21;101447.84;;;-0.57;100.00
28167;BME280;15455;53.376;-6.262;2024-01-15T10:58:09;101442.25;;;-0.50;100.00
28167;BME280;15455;53.376;-6.262;2024-01-15T11:00:55;101438.41;;;-0.42;100.00
28167;BME280;15455;53.376;-6.262;2024-01-15T11:03:42;101433.75;;;-0.32;100.00
28167;BME280;15455;53.376;-6.262;2024-01-15T11:06:42;101438.34;;;-0.27;100.00
28167;BME280;15455;53.376;-6.262;2024-01-15T11:09:28;101429.28;;;-0.20;100.00
28167;BME280;15455;53.376;-6.262;2024-01-15T11:12:16;101433.88;;;-0.14;100.00
28167;BME280;15455;53.376;-6.262;2024-01-15T11:15:03;101436.81;;;-0.07;100.00
28167;BME280;15455;53.376;-6.262;2024-01-15T11:18:00;101435.03;;;-0.08;100.00
28167;BME280;15455;53.376;-6.262;2024-01-15T11:24:01;101421.16;;;0.05;100.00
28167;BME280;15455;53.376;-6.262;2024-01-15T11:26:47;101420.81;;;0.15;100.00
28167;BME280;15455;53.376;-6.262;2024-01-15T11:29:37;101411.19;;;0.28;100.00
28167;BME280;15455;53.376;-6.262;2024-01-15T11:32:33;101411.34;;;0.31;100.00
28167;BME280;15455;53.376;-6.262;2024-01-15T11:35:19;101400.63;;;0.40;100.00
28167;BME280;15455;53.376;-6.262;2024-01-15T11:38:05;101400.00;;;0.44;100.00
28167;BME280;15455;53.376;-6.262;2024-01-15T11:40:51;101398.69;;;0.52;100.00
28167;BME280;15455;53.376;-6.262;2024-01-15T11:43:38;101398.00;;;0.56;100.00
28167;BME280;15455;53.376;-6.262;2024-01-15T11:46:26;101390.63;;;0.62;100.00
28167;BME280;15455;53.376;-6.262;2024-01-15T11:49:32;101392.09;;;0.75;100.00
28167;BME280;15455;53.376;-6.262;2024-01-15T11:52:38;101385.59;;;0.83;100.00
28167;BME280;15455;53.376;-6.262;2024-01-15T11:55:34;101385.69;;;0.85;100.00
28167;BME280;15455;53.376;-6.262;2024-01-15T11:58:23;101379.88;;;0.89;100.00
28167;BME280;15455;53.376;-6.262;2024-01-15T12:01:10;101376.78;;;0.96;100.00
28167;BME280;15455;53.376;-6.262;2024-01-15T12:03:55;101375.13;;;0.97;100.00
28167;BME280;15455;53.376;-6.262;2024-01-15T12:06:44;101375.03;;;0.95;100.00
28167;BME280;15455;53.376;-6.262;2024-01-15T12:09:30;101364.84;;;0.97;100.00
28167;BME280;15455;53.376;-6.262;2024-01-15T12:15:30;101367.09;;;1.09;100.00
28167;BME280;15455;53.376;-6.262;2024-01-15T12:18:17;101376.84;;;1.16;100.00
28167;BME280;15455;53.376;-6.262;2024-01-15T12:21:04;101370.88;;;1.17;100.00
28167;BME280;15455;53.376;-6.262;2024-01-15T12:23:50;101371.56;;;1.13;100.00
28167;BME280;15455;53.376;-6.262;2024-01-15T12:26:38;101370.59;;;1.11;100.00
28167;BME280;15455;53.376;-6.262;2024-01-15T12:29:24;101367.97;;;1.09;100.00
28167;BME280;15455;53.376;-6.262;2024-01-15T12:32:09;101371.41;;;1.10;100.00
28167;BME280;15455;53.376;-6.262;2024-01-15T12:34:55;101374.03;;;1.11;100.00
28167;BME280;15455;53.376;-6.262;2024-01-15T12:37:43;101373.31;;;1.14;100.00
28167;BME280;15455;53.376;-6.262;2024-01-15T12:40:31;101371.63;;;1.14;100.00
28167;BME280;15455;53.376;-6.262;2024-01-15T12:43:17;101364.66;;;1.12;100.00
28167;BME280;15455;53.376;-6.262;2024-01-15T12:46:03;101360.31;;;1.11;100.00
28167;BME280;15455;53.376;-6.262;2024-01-15T12:48:49;101367.16;;;1.10;100.00
28167;BME280;15455;53.376;-6.262;2024-01-15T12:51:35;101357.16;;;1.16;100.00
28167;BME280;15455;53.376;-6.262;2024-01-15T12:54:21;101357.34;;;1.21;100.00
28167;BME280;15455;53.376;-6.262;2024-01-15T12:57:06;101353.50;;;1.31;100.00
28167;BME280;15455;53.376;-6.262;2024-01-15T12:59:54;101346.97;;;1.37;100.00
28167;BME280;15455;53.376;-6.262;2024-01-15T13:02:40;101345.41;;;1.41;100.00
28167;BME280;15455;53.376;-6.262;2024-01-15T13:05:28;101342.09;;;1.44;100.00
28167;BME280;15455;53.376;-6.262;2024-01-15T13:08:15;101343.19;;;1.49;100.00
28167;BME280;15455;53.376;-6.262;2024-01-15T13:11:00;101338.16;;;1.52;100.00
28167;BME280;15455;53.376;-6.262;2024-01-15T13:13:46;101335.06;;;1.59;100.00
28167;BME280;15455;53.376;-6.262;2024-01-15T13:16:33;101334.34;;;1.63;100.00
28167;BME280;15455;53.376;-6.262;2024-01-15T13:19:18;101329.34;;;1.66;100.00
28167;BME280;15455;53.376;-6.262;2024-01-15T13:22:04;101327.72;;;1.68;100.00
28167;BME280;15455;53.376;-6.262;2024-01-15T13:24:52;101319.25;;;1.71;100.00
28167;BME280;15455;53.376;-6.262;2024-01-15T13:27:38;101313.50;;;1.77;100.00
28167;BME280;15455;53.376;-6.262;2024-01-15T13:30:26;101306.72;;;1.79;100.00
28167;BME280;15455;53.376;-6.262;2024-01-15T13:33:11;101318.66;;;1.77;100.00
28167;BME280;15455;53.376;-6.262;2024-01-15T13:35:59;101305.78;;;1.77;100.00
28167;BME280;15455;53.376;-6.262;2024-01-15T13:38:44;101307.44;;;1.76;100.00
28167;BME280;15455;53.376;-6.262;2024-01-15T13:41:30;101315.78;;;1.70;100.00
28167;BME280;15455;53.376;-6.262;2024-01-15T13:44:16;101313.84;;;1.65;100.00
28167;BME280;15455;53.376;-6.262;2024-01-15T13:47:02;101307.56;;;1.58;100.00
28167;BME280;15455;53.376;-6.262;2024-01-15T13:49:47;101310.13;;;1.58;100.00
28167;BME280;15455;53.376;-6.262;2024-01-15T13:52:33;101307.56;;;1.58;100.00
28167;BME280;15455;53.376;-6.262;2024-01-15T13:55:19;101299.72;;;1.55;100.00
28167;BME280;15455;53.376;-6.262;2024-01-15T13:58:05;101308.31;;;1.55;100.00
28167;BME280;15455;53.376;-6.262;2024-01-15T14:00:52;101290.91;;;1.50;100.00
28167;BME280;15455;53.376;-6.262;2024-01-15T14:03:38;101300.38;;;1.51;100.00
28167;BME280;15455;53.376;-6.262;2024-01-15T14:06:24;101294.44;;;1.52;100.00
28167;BME280;15455;53.376;-6.262;2024-01-15T14:09:10;101297.81;;;1.51;100.00
28167;BME280;15455;53.376;-6.262;2024-01-15T14:11:56;101288.47;;;1.53;100.00
28167;BME280;15455;53.376;-6.262;2024-01-15T14:14:42;101288.47;;;1.53;100.00
28167;BME280;15455;53.376;-6.262;2024-01-15T14:17:28;101285.88;;;1.53;100.00